Time;durP1;ratioP1;P1;durP2;ratioP2;P2;SDS_P1;SDS_P2;PMS_P1;PMS_P2;Temp;Humidity;BMP_temperature;BMP_pressure;BME280_temperature;BME280_humidity;BME280_pressure;Samples;Min_cycle;Max_cycle;Signal;HPM_P1;HPM_P2
2021/10/31 00:00:06;;;;;;;12.52;5.30;;;;;;;-142.75;100.00;76552.56;5008548;28;20026;-65
2021/10/31 00:02:32;;;;;;;18.70;5.88;;;;;;;-142.75;100.00;76556.50;5008249;28;20040;-65
2021/10/31 00:04:57;;;;;;;14.05;5.35;;;;;;;-142.75;100.00;76554.53;4990761;28;20476;-64
2021/10/31 00:07:22;;;;;;;15.75;5.90;;;;;;;-142.75;100.00;76556.50;5014845;28;20021;-64
2021/10/31 00:09:48;;;;;;;17.10;5.68;;;;;;;-142.75;100.00;76566.34;5027511;28;20037;-64
2021/10/31 00:12:14;;;;;;;17.50;6.32;;;;;;;-142.75;100.00;76570.28;5026491;28;20021;-65
2021/10/31 00:14:39;;;;;;;13.60;6.05;;;;;;;-142.75;100.00;76574.22;5028339;28;20042;-64
2021/10/31 00:17:05;;;;;;;18.45;6.50;;;;;;;-142.75;100.00;76574.22;5027775;28;20026;-65
2021/10/31 00:19:30;;;;;;;16.52;6.32;;;;;;;-142.75;100.00;76576.19;5027823;28;20025;-65
2021/10/31 00:21:56;;;;;;;15.10;6.45;;;;;;;-142.75;100.00;76584.06;5027427;28;20029;-64
2021/10/31 00:24:21;;;;;;;12.35;5.65;;;;;;;-142.75;100.00;76588.00;5027908;28;20021;-65
2021/10/31 00:26:47;;;;;;;13.50;6.40;;;;;;;-142.75;100.00;76586.03;5028124;28;20026;-65
2021/10/31 00:29:13;;;;;;;14.70;6.45;;;;;;;-142.75;100.00;76593.91;5028232;28;20494;-65
2021/10/31 00:31:38;;;;;;;11.85;6.15;;;;;;;-142.75;100.00;76597.84;5027425;28;20029;-65
2021/10/31 00:34:03;;;;;;;17.73;6.68;;;;;;;-142.75;100.00;76607.69;5027637;28;20874;-64
2021/10/31 00:36:29;;;;;;;17.10;6.32;;;;;;;-142.75;100.00;76603.75;5027725;28;20035;-65
2021/10/31 00:38:54;;;;;;;11.70;6.32;;;;;;;-142.75;100.00;76617.53;5027722;28;20021;-65
2021/10/31 00:41:20;;;;;;;13.50;6.15;;;;;;;-142.75;100.00;76617.53;5025775;28;20075;-65
2021/10/31 00:43:45;;;;;;;15.32;6.43;;;;;;;-142.75;100.00;76611.63;5027934;28;20017;-65
2021/10/31 00:46:10;;;;;;;17.42;6.55;;;;;;;-142.75;100.00;76613.59;5027671;28;20029;-64
2021/10/31 00:48:36;;;;;;;15.70;6.63;;;;;;;-142.75;100.00;76613.59;5027318;28;20076;-65
2021/10/31 00:51:02;;;;;;;15.45;7.03;;;;;;;-142.75;100.00;76625.41;5026940;28;20041;-65
2021/10/31 00:53:28;;;;;;;16.17;6.05;;;;;;;-142.75;100.00;76633.28;5031499;28;20038;-64
2021/10/31 00:55:53;;;;;;;12.32;6.47;;;;;;;-142.75;100.00;76621.47;5029897;28;20032;-64
2021/10/31 00:58:19;;;;;;;12.82;5.35;;;;;;;-142.75;100.00;76613.59;5030325;28;20017;-64
2021/10/31 01:00:46;;;;;;;15.25;6.57;;;;;;;-142.75;100.00;76629.34;5031861;28;20538;-64
2021/10/31 01:03:13;;;;;;;15.75;6.43;;;;;;;-142.75;100.00;76613.59;5030889;28;20037;-64
2021/10/31 01:05:41;;;;;;;;;;;;;;;-142.75;100.00;76619.50;5032016;28;20059;-65
2021/10/31 01:08:39;;;;;;;15.30;6.28;;;;;;;-142.75;100.00;76607.69;5029891;28;19940;-64
2021/10/31 01:11:20;;;;;;;12.95;6.00;;;;;;;-142.75;100.00;76607.69;5030423;28;20108;-65
2021/10/31 01:13:53;;;;;;;12.55;5.80;;;;;;;-142.75;100.00;76625.41;5031467;28;20061;-64
2021/10/31 01:16:50;;;;;;;12.40;6.63;;;;;;;-142.75;100.00;76603.75;5031070;28;20474;-64
2021/10/31 01:19:37;;;;;;;16.83;7.70;;;;;;;-142.75;100.00;76601.78;5029787;28;20087;-64
2021/10/31 01:22:05;;;;;;;;;;;;;;;-142.75;100.00;76621.47;5031173;28;20048;-65
2021/10/31 01:24:49;;;;;;;14.55;6.13;;;;;;;-142.75;100.00;76625.41;5030949;28;19999;-64
2021/10/31 01:27:22;;;;;;;14.48;6.30;;;;;;;-142.75;100.00;76625.41;5030888;28;20574;-64
2021/10/31 01:30:08;;;;;;;13.40;5.75;;;;;;;-142.75;100.00;76635.25;5031312;28;20136;-64
2021/10/31 01:32:48;;;;;;;21.30;5.53;;;;;;;-142.75;100.00;76635.25;5030902;28;20029;-65
2021/10/31 01:35:32;;;;;;;16.60;5.25;;;;;;;-142.75;100.00;76611.63;5030594;28;20084;-65
2021/10/31 01:38:28;;;;;;;13.52;5.15;;;;;;;-142.75;100.00;76633.28;5029572;28;20026;-65
2021/10/31 01:41:01;;;;;;;13.05;5.63;;;;;;;-142.75;100.00;76635.25;5029992;28;20021;-65
2021/10/31 01:44:00;;;;;;;12.90;4.90;;;;;;;-142.75;100.00;76633.28;5030651;28;20398;-65
2021/10/31 01:46:46;;;;;;;11.70;5.63;;;;;;;-142.75;100.00;76619.50;5030607;28;20055;-65
2021/10/31 01:49:50;;;;;;;11.65;5.40;;;;;;;-142.75;100.00;76651.00;5030377;28;20087;-64
2021/10/31 01:52:27;;;;;;;21.15;5.32;;;;;;;-142.75;100.00;76639.19;5030522;28;20071;-65
2021/10/31 01:54:58;;;;;;;15.63;6.57;;;;;;;-142.75;100.00;76643.13;5030281;28;20025;-65
2021/10/31 01:57:24;;;;;;;17.33;5.70;;;;;;;-142.75;100.00;76654.94;5030168;28;20454;-65
2021/10/31 02:00:00;;;;;;;19.33;6.82;;;;;;;-142.75;100.00;76651.00;5013611;28;20621;-65
2021/10/31 02:02:29;;;;;;;12.43;6.35;;;;;;;-142.75;100.00;76672.66;5009392;28;20030;-65
2021/10/31 02:04:57;;;;;;;14.50;5.85;;;;;;;-142.75;100.00;76668.72;5026783;28;20033;-65
2021/10/31 02:07:23;;;;;;;17.13;6.25;;;;;;;-142.75;100.00;76662.81;5030072;28;20053;-65
2021/10/31 02:09:50;;;;;;;9.82;5.63;;;;;;;-142.75;100.00;76682.50;5027858;28;20118;-64
2021/10/31 02:12:18;;;;;;;16.08;5.68;;;;;;;-142.75;100.00;76696.28;5014204;28;20022;-65
2021/10/31 02:14:45;;;;;;;11.35;5.75;;;;;;;-142.75;100.00;76676.59;5010665;28;20491;-65
2021/10/31 02:17:10;;;;;;;16.48;6.03;;;;;;;-142.75;100.00;76694.31;5010350;28;20037;-64
2021/10/31 02:19:42;;;;;;;14.45;6.10;;;;;;;-142.75;100.00;76700.22;5010441;28;20476;-65
2021/10/31 02:22:30;;;;;;;16.80;5.95;;;;;;;-142.75;100.00;76710.06;5012323;28;20579;-65
2021/10/31 02:24:56;;;;;;;13.85;5.97;;;;;;;-142.75;100.00;76700.22;5029972;28;20025;-65
2021/10/31 02:27:24;;;;;;;11.35;5.57;;;;;;;-142.75;100.00;76702.19;5028417;28;20030;-64
2021/10/31 02:29:55;;;;;;;15.45;5.35;;;;;;;-142.75;100.00;76696.28;5030043;28;20631;-65
2021/10/31 02:32:23;;;;;;;9.38;4.93;;;;;;;-142.75;100.00;76714.00;5029748;28;20037;-64
2021/10/31 02:34:49;;;;;;;15.93;6.00;;;;;;;-142.75;100.00;76719.91;5028118;28;20135;-65
2021/10/31 02:37:15;;;;;;;10.75;5.28;;;;;;;-142.75;100.00;76715.97;5028334;28;20028;-64
2021/10/31 02:39:41;;;;;;;16.38;5.28;;;;;;;-142.75;100.00;76712.03;5027904;28;20013;-65
2021/10/31 02:42:06;;;;;;;16.77;5.13;;;;;;;-142.75;100.00;76719.91;5029433;28;20444;-65
2021/10/31 02:44:32;;;;;;;8.98;4.72;;;;;;;-142.75;100.00;76710.06;5015211;28;20117;-64
2021/10/31 02:46:58;;;;;;;10.35;3.97;;;;;;;-142.75;100.00;76710.06;5009805;28;20502;-65
2021/10/31 02:49:24;;;;;;;11.65;4.47;;;;;;;-142.75;100.00;76712.03;5009723;28;20095;-64
2021/10/31 02:52:00;;;;;;;;;;;;;;;-142.75;100.00;76696.28;5009470;28;20026;-64
2021/10/31 02:55:11;;;;;;;10.95;4.30;;;;;;;-142.75;100.00;76702.19;5009603;28;20294;-64
2021/10/31 02:57:56;;;;;;;11.82;4.15;;;;;;;-142.75;100.00;76706.13;5008252;28;20026;-64
2021/10/31 03:00:22;;;;;;;16.10;5.07;;;;;;;-142.75;100.00;76714.00;5009650;28;20416;-65
2021/10/31 03:02:48;;;;;;;18.15;5.00;;;;;;;-142.75;100.00;76702.19;5008645;28;20036;-65
2021/10/31 03:05:14;;;;;;;15.05;6.43;;;;;;;-142.75;100.00;76710.06;5009309;28;20022;-64
2021/10/31 03:07:39;;;;;;;15.30;6.90;;;;;;;-142.75;100.00;76708.09;5009734;28;20029;-64
2021/10/31 03:10:05;;;;;;;15.02;6.22;;;;;;;-142.75;100.00;76719.91;5008740;28;20531;-65
2021/10/31 03:12:31;;;;;;;10.90;6.65;;;;;;;-142.75;100.00;76714.00;5009238;28;20045;-65
2021/10/31 03:14:58;;;;;;;14.15;6.57;;;;;;;-142.75;100.00;76715.97;5009335;28;20149;-64
2021/10/31 03:17:23;;;;;;;15.57;6.75;;;;;;;-142.75;100.00;76712.03;5009235;28;20098;-64
2021/10/31 03:19:49;;;;;;;15.68;7.45;;;;;;;-142.75;100.00;76708.09;5008481;28;20034;-64
2021/10/31 03:22:14;;;;;;;13.35;7.85;;;;;;;-142.75;100.00;76680.53;5009127;28;20452;-64
2021/10/31 03:24:40;;;;;;;12.90;7.97;;;;;;;-142.75;100.00;76696.28;5009387;28;20449;-64
2021/10/31 03:27:06;;;;;;;16.63;8.80;;;;;;;-142.75;100.00;76704.16;5008986;28;20427;-64
2021/10/31 03:29:31;;;;;;;;;;;;;;;-142.75;100.00;76714.00;5008746;28;20095;-64
2021/10/31 03:31:57;;;;;;;16.58;9.75;;;;;;;-142.75;100.00;76715.97;5008061;28;19913;-64
2021/10/31 03:34:22;;;;;;;21.20;11.35;;;;;;;-142.75;100.00;76712.03;5008943;28;20080;-65
2021/10/31 03:36:48;;;;;;;16.80;10.98;;;;;;;-142.75;100.00;76710.06;5007851;28;20076;-65
2021/10/31 03:39:14;;;;;;;25.15;11.18;;;;;;;-142.75;100.00;76714.00;5008951;28;20022;-64
2021/10/31 03:41:40;;;;;;;17.50;10.35;;;;;;;-142.75;100.00;76727.78;5008385;28;20454;-64
2021/10/31 03:44:06;;;;;;;;;;;;;;;-142.75;100.00;76745.50;5007946;28;20045;-64
2021/10/31 03:46:32;;;;;;;21.10;11.65;;;;;;;-142.75;100.00;76735.66;5008535;28;19949;-65
2021/10/31 03:48:57;;;;;;;24.55;11.52;;;;;;;-142.75;100.00;76733.69;5008785;28;20028;-64
2021/10/31 03:51:22;;;;;;;21.45;10.93;;;;;;;-142.75;100.00;76739.59;5007928;28;20022;-64
2021/10/31 03:53:48;;;;;;;24.10;11.70;;;;;;;-142.75;100.00;76739.59;5008899;28;20061;-65
2021/10/31 03:56:13;;;;;;;19.90;12.18;;;;;;;-142.75;100.00;76753.38;5008207;28;20033;-64
2021/10/31 03:58:39;;;;;;;22.13;11.43;;;;;;;-142.75;100.00;76753.38;5008991;28;20033;-65
2021/10/31 04:01:04;;;;;;;25.75;12.88;;;;;;;-142.75;100.00;76751.41;5008567;28;20026;-64
2021/10/31 04:03:29;;;;;;;24.92;12.85;;;;;;;-142.75;100.00;76751.41;5008379;28;20049;-65
2021/10/31 04:05:55;;;;;;;22.98;12.88;;;;;;;-142.75;100.00;76735.66;5007156;28;20040;-64
2021/10/31 04:08:20;;;;;;;20.92;12.57;;;;;;;-142.75;100.00;76749.44;5008451;28;20022;-64
2021/10/31 04:10:45;;;;;;;21.63;12.45;;;;;;;-142.75;100.00;76751.41;5006682;28;20037;-65
2021/10/31 04:13:10;;;;;;;20.50;12.87;;;;;;;-142.75;100.00;76755.34;5008196;28;20020;-65
2021/10/31 04:15:36;;;;;;;20.42;12.93;;;;;;;-142.75;100.00;76751.41;5008362;28;20323;-64
2021/10/31 04:18:01;;;;;;;23.45;12.90;;;;;;;-142.75;100.00;76759.28;5008335;28;20030;-64
2021/10/31 04:20:27;;;;;;;24.65;13.65;;;;;;;-142.75;100.00;76745.50;5007574;28;20478;-64
2021/10/31 04:22:52;;;;;;;21.83;13.38;;;;;;;-142.75;100.00;76743.53;5008422;28;20403;-65
2021/10/31 04:25:18;;;;;;;21.33;13.23;;;;;;;-142.75;100.00;76749.44;5008893;28;20030;-64
2021/10/31 04:27:44;;;;;;;21.50;12.77;;;;;;;-142.75;100.00;76751.41;5008797;28;20025;-64
2021/10/31 04:30:09;;;;;;;;;;;;;;;-142.75;100.00;76739.59;5009070;28;20041;-64
2021/10/31 04:32:36;;;;;;;26.45;12.57;;;;;;;-142.75;100.00;76749.44;5008772;28;19913;-64
2021/10/31 04:35:01;;;;;;;21.25;12.70;;;;;;;-142.75;100.00;76739.59;5008918;28;20107;-64
2021/10/31 04:37:28;;;;;;;21.27;12.43;;;;;;;-142.75;100.00;76733.69;5008902;28;20034;-64
2021/10/31 04:39:53;;;;;;;22.45;12.05;;;;;;;-142.75;100.00;76739.59;5007873;28;20029;-65
2021/10/31 04:42:19;;;;;;;20.77;12.70;;;;;;;-142.75;100.00;76761.25;5008735;28;20407;-64
2021/10/31 04:44:44;;;;;;;19.92;11.75;;;;;;;-142.75;100.00;76757.31;5009268;28;20475;-66
2021/10/31 04:47:10;;;;;;;27.42;12.75;;;;;;;-142.75;100.00;76747.47;5008715;28;20453;-65
2021/10/31 04:49:36;;;;;;;23.83;12.55;;;;;;;-142.75;100.00;76741.56;5008665;28;20030;-65
2021/10/31 04:52:03;;;;;;;23.58;13.18;;;;;;;-142.75;100.00;76731.72;5007829;28;20418;-65
2021/10/31 04:54:28;;;;;;;22.88;13.10;;;;;;;-142.75;100.00;76743.53;5008419;28;20026;-65
2021/10/31 04:56:54;;;;;;;17.35;11.43;;;;;;;-142.75;100.00;76739.59;5008444;28;20052;-65
2021/10/31 04:59:19;;;;;;;22.02;13.23;;;;;;;-142.75;100.00;76735.66;5008732;28;20026;-65
2021/10/31 05:01:45;;;;;;;25.73;12.52;;;;;;;-142.75;100.00;76751.41;5008656;28;20021;-65
2021/10/31 05:04:11;;;;;;;22.20;12.05;;;;;;;-142.75;100.00;76745.50;5008485;28;20107;-65
2021/10/31 05:06:38;;;;;;;23.15;12.02;;;;;;;-142.75;100.00;76739.59;5007404;28;20072;-65
2021/10/31 05:09:04;;;;;;;19.13;12.05;;;;;;;-142.75;100.00;76735.66;5008388;28;20446;-65
2021/10/31 05:11:29;;;;;;;22.75;11.88;;;;;;;-142.75;100.00;76727.78;5007813;28;20124;-65
2021/10/31 05:13:55;;;;;;;20.00;12.27;;;;;;;-142.75;100.00;76721.88;5008356;28;20105;-65
2021/10/31 05:16:20;;;;;;;17.60;11.95;;;;;;;-142.75;100.00;76719.91;5008446;28;20028;-65
2021/10/31 05:18:46;;;;;;;19.83;12.32;;;;;;;-142.75;100.00;76710.06;5008657;28;20032;-65
2021/10/31 05:21:11;;;;;;;18.77;12.07;;;;;;;-142.75;100.00;76708.09;5007489;28;20022;-65
2021/10/31 05:23:36;;;;;;;21.65;11.70;;;;;;;-142.75;100.00;76698.25;5008463;28;20542;-65
2021/10/31 05:26:02;;;;;;;25.02;11.50;;;;;;;-142.75;100.00;76694.31;5006972;28;20029;-65
2021/10/31 05:28:28;;;;;;;21.88;11.77;;;;;;;-142.75;100.00;76700.22;5007076;28;20372;-65
2021/10/31 05:30:53;;;;;;;18.02;11.23;;;;;;;-142.75;100.00;76690.38;5008032;28;20033;-65
2021/10/31 05:33:21;;;;;;;24.98;12.20;;;;;;;-142.75;100.00;76704.16;5008052;28;20032;-65
2021/10/31 05:35:46;;;;;;;21.10;12.25;;;;;;;-142.75;100.00;76690.38;5008436;28;20026;-65
2021/10/31 05:38:13;;;;;;;20.05;10.85;;;;;;;-142.75;100.00;76684.47;5006911;28;20026;-65
2021/10/31 05:40:39;;;;;;;17.88;10.82;;;;;;;-142.75;100.00;76694.31;5011241;28;20087;-65
2021/10/31 05:43:04;;;;;;;22.10;11.73;;;;;;;-142.75;100.00;76692.34;5011574;28;20026;-65
2021/10/31 05:45:29;;;;;;;19.63;11.10;;;;;;;-142.75;100.00;76682.50;5011501;28;20029;-65
2021/10/31 05:47:55;;;;;;;26.80;12.70;;;;;;;-142.75;100.00;76708.09;5011655;28;20026;-65
2021/10/31 05:50:21;;;;;;;21.58;12.40;;;;;;;-142.75;100.00;76700.22;5010594;28;20471;-65
2021/10/31 05:52:46;;;;;;;24.30;12.48;;;;;;;-142.75;100.00;76692.34;5011806;28;20033;-65
2021/10/31 05:55:14;;;;;;;25.42;12.23;;;;;;;-142.75;100.00;76692.34;5011166;28;20018;-65
2021/10/31 05:57:40;;;;;;;20.83;13.02;;;;;;;-142.75;100.00;76719.91;5016981;22;20046;-69
2021/10/31 06:00:08;;;;;;;24.60;13.98;;;;;;;-142.75;100.00;76719.91;4991409;28;20030;-68
2021/10/31 06:02:34;;;;;;;21.08;12.52;;;;;;;-142.75;100.00;76715.97;4991654;28;20033;-67
2021/10/31 06:05:01;;;;;;;24.15;13.70;;;;;;;-142.75;100.00;76719.91;4991755;28;20025;-68
2021/10/31 06:07:27;;;;;;;23.48;13.32;;;;;;;-142.75;100.00;76710.06;4991448;28;20053;-68
2021/10/31 06:09:54;;;;;;;22.33;14.10;;;;;;;-142.75;100.00;76714.00;4973436;28;20108;-69
2021/10/31 06:12:19;;;;;;;26.67;14.07;;;;;;;-142.75;100.00;76723.84;4972177;28;20034;-69
2021/10/31 06:14:45;;;;;;;20.85;13.23;;;;;;;-142.75;100.00;76727.78;4991698;28;20038;-69
2021/10/31 06:17:10;;;;;;;29.08;13.98;;;;;;;-142.75;100.00;76731.72;4973767;28;20030;-69
2021/10/31 06:19:35;;;;;;;26.33;14.30;;;;;;;-142.75;100.00;76725.81;4991323;28;20415;-69
2021/10/31 06:22:02;;;;;;;21.33;12.52;;;;;;;-142.75;100.00;76733.69;4971420;28;20091;-69
2021/10/31 06:24:28;;;;;;;22.67;14.00;;;;;;;-142.75;100.00;76719.91;4991216;28;20030;-68
2021/10/31 06:26:53;;;;;;;20.35;13.00;;;;;;;-142.75;100.00;76729.75;4991361;28;20368;-69
2021/10/31 06:29:18;;;;;;;23.77;12.73;;;;;;;-142.75;100.00;76721.88;4973733;28;20109;-71
2021/10/31 06:31:44;;;;;;;24.83;13.73;;;;;;;-142.75;100.00;76721.88;4991288;28;20568;-69
2021/10/31 06:34:09;;;;;;;22.85;13.27;;;;;;;-142.75;100.00;76725.81;4991017;28;20039;-69
2021/10/31 06:36:35;;;;;;;20.50;13.02;;;;;;;-142.75;100.00;76710.06;4991322;28;20030;-69
2021/10/31 06:39:00;;;;;;;22.80;13.57;;;;;;;-142.75;100.00;76706.13;4991170;28;20030;-69
2021/10/31 06:41:26;;;;;;;25.60;13.85;;;;;;;-142.75;100.00;76706.13;4990656;28;20045;-69
2021/10/31 06:43:51;;;;;;;21.80;13.40;;;;;;;-142.75;100.00;76706.13;4990851;28;20125;-68
2021/10/31 06:46:17;;;;;;;22.45;13.57;;;;;;;-142.75;100.00;76696.28;4990693;28;20053;-69
2021/10/31 06:48:42;;;;;;;22.48;13.93;;;;;;;-142.75;100.00;76694.31;4973703;28;20026;-69
2021/10/31 06:51:08;;;;;;;25.88;14.48;;;;;;;-142.75;100.00;76696.28;4989682;28;20396;-69
2021/10/31 06:53:33;;;;;;;24.17;15.13;;;;;;;-142.75;100.00;76684.47;4990702;28;20023;-69
2021/10/31 06:56:00;;;;;;;24.88;14.48;;;;;;;-142.75;100.00;76684.47;4991087;28;20025;-70
2021/10/31 06:58:26;;;;;;;20.10;13.15;;;;;;;-142.75;100.00;76674.63;4973276;28;20038;-68
2021/10/31 07:00:51;;;;;;;18.05;12.48;;;;;;;-142.75;100.00;76654.94;4990451;28;20045;-69
2021/10/31 07:03:17;;;;;;;20.45;13.30;;;;;;;-142.75;100.00;76641.16;4990237;28;20510;-70
2021/10/31 07:05:42;;;;;;;22.38;13.10;;;;;;;-142.75;100.00;76633.28;4990924;28;20088;-69
2021/10/31 07:08:07;;;;;;;23.65;13.60;;;;;;;-142.75;100.00;76617.53;4990547;28;20674;-69
2021/10/31 07:10:33;;;;;;;19.08;13.43;;;;;;;-142.75;100.00;76621.47;4989653;28;20052;-69
2021/10/31 07:12:58;;;;;;;23.08;13.63;;;;;;;-142.75;100.00;76601.78;4972753;28;20369;-69
2021/10/31 07:15:24;;;;;;;20.77;12.93;;;;;;;-142.75;100.00;76582.09;4972954;28;20045;-67
2021/10/31 07:17:49;;;;;;;19.88;14.00;;;;;;;-142.75;100.00;76591.94;4990268;28;20044;-66
2021/10/31 07:20:15;;;;;;;21.08;13.18;;;;;;;-142.75;100.00;76580.13;4971908;28;20026;-68
2021/10/31 07:22:41;;;;;;;19.17;12.65;;;;;;;-142.75;100.00;76558.47;4990680;28;20041;-68
2021/10/31 07:25:07;;;;;;;;;;;;;;;-142.75;100.00;76566.34;4990663;28;20105;-68
2021/10/31 07:27:33;;;;;;;19.00;11.68;;;;;;;-142.75;100.00;76560.44;4989949;28;19913;-68
2021/10/31 07:29:58;;;;;;;19.33;11.63;;;;;;;-142.75;100.00;76556.50;4989857;28;20034;-68
2021/10/31 07:32:23;;;;;;;16.95;11.32;;;;;;;-142.75;100.00;76550.59;4972476;28;20533;-67
2021/10/31 07:34:49;;;;;;;18.30;11.52;;;;;;;-142.75;100.00;76552.56;4971487;28;20025;-66
2021/10/31 07:37:15;;;;;;;20.33;12.25;;;;;;;-142.75;100.00;76536.84;4989592;28;20039;-67
2021/10/31 07:39:41;;;;;;;;;;;;;;;-142.75;100.00;76527.00;4989800;28;20476;-70
2021/10/31 07:42:07;;;;;;;18.40;12.27;;;;;;;-142.75;100.00;76532.88;4990065;28;20087;-69
2021/10/31 07:44:33;;;;;;;19.10;11.52;;;;;;;-142.75;100.00;76534.84;4989762;28;20153;-68
2021/10/31 07:46:58;;;;;;;20.42;12.05;;;;;;;-142.75;100.00;76530.91;4989797;28;20079;-69
2021/10/31 07:49:24;;;;;;;16.98;12.25;;;;;;;-142.75;100.00;76521.09;4989461;28;20080;-68
2021/10/31 07:51:51;;;;;;;17.50;12.18;;;;;;;-142.75;100.00;76517.16;4971685;28;20391;-66
2021/10/31 07:54:21;;;;;;;17.10;12.18;;;;;;;-142.75;100.00;76489.59;4989592;28;20023;-68
2021/10/31 07:56:47;;;;;;;16.63;10.85;;;;;;;-142.75;100.00;76505.34;4989881;28;20376;-68
2021/10/31 07:59:12;;;;;;;17.23;11.20;;;;;;;-142.75;100.00;76487.63;4989372;28;20152;-66
2021/10/31 08:01:38;;;;;;;15.40;11.27;;;;;;;-142.75;100.00;76469.91;4971544;28;20109;-68
2021/10/31 08:04:03;;;;;;;16.05;10.27;;;;;;;-142.75;100.00;76462.03;4972347;28;20022;-68
2021/10/31 08:06:28;;;;;;;19.75;10.98;;;;;;;-142.75;100.00;76448.25;4989424;28;20113;-68
2021/10/31 08:08:53;;;;;;;12.63;8.75;;;;;;;-142.75;100.00;76452.19;4989401;28;20022;-68
2021/10/31 08:11:19;;;;;;;19.55;9.98;;;;;;;-142.75;100.00;76462.03;4971270;28;20037;-68
2021/10/31 08:13:45;;;;;;;15.40;10.25;;;;;;;-142.75;100.00;76428.56;4971645;28;20476;-68
2021/10/31 08:16:10;;;;;;;;;;;;;;;-142.75;100.00;76420.69;4989064;28;20026;-69
2021/10/31 08:18:36;;;;;;;13.75;9.85;;;;;;;-142.75;100.00;76399.03;4988815;28;19913;-68
2021/10/31 08:21:02;;;;;;;16.35;9.50;;;;;;;-142.75;100.00;76379.34;4987988;28;20034;-68
2021/10/31 08:23:28;;;;;;;13.48;8.93;;;;;;;-142.75;100.00;76371.47;4988822;28;20468;-69
2021/10/31 08:25:53;;;;;;;13.43;9.13;;;;;;;-142.75;100.00;76357.69;4971068;28;20041;-68
2021/10/31 08:28:20;;;;;;;11.95;8.85;;;;;;;-142.75;100.00;76340.00;4988519;28;20068;-68
2021/10/31 08:30:55;;;;;;;12.05;8.27;;;;;;;-142.75;100.00;76320.31;4988458;28;20045;-69
2021/10/31 08:33:23;;;;;;;13.27;8.52;;;;;;;-142.75;100.00;76302.59;4988176;28;20558;-69
2021/10/31 08:35:49;;;;;;;13.48;8.60;;;;;;;-142.75;100.00;76263.22;4988502;28;20038;-68
2021/10/31 08:38:15;;;;;;;13.43;8.00;;;;;;;-142.75;100.00;76251.41;4988344;28;20022;-67
2021/10/31 08:40:42;;;;;;;11.85;8.02;;;;;;;-142.75;100.00;76219.91;4988179;28;20049;-69
2021/10/31 08:43:10;;;;;;;10.07;7.38;;;;;;;-142.75;100.00;76180.56;4988368;28;20125;-67
2021/10/31 08:45:38;;;;;;;11.70;7.70;;;;;;;-142.75;100.00;76184.50;4988530;28;20030;-71
2021/10/31 08:48:04;;;;;;;8.60;6.30;;;;;;;-142.75;100.00;76202.19;4988270;28;20038;-68
2021/10/31 08:50:29;;;;;;;11.55;6.43;;;;;;;-142.75;100.00;76212.03;4987745;28;20037;-69
2021/10/31 08:52:54;;;;;;;8.27;6.20;;;;;;;-142.75;100.00;76206.13;4970959;28;20030;-67
2021/10/31 08:55:20;;;;;;;9.50;6.47;;;;;;;-142.75;100.00;76206.13;4988562;28;20029;-69
2021/10/31 08:57:45;;;;;;;8.27;6.25;;;;;;;-142.75;100.00;76223.84;4985843;28;20035;-67
2021/10/31 09:00:12;;;;;;;11.95;6.80;;;;;;;-142.75;100.00;76208.09;4987842;28;20034;-69
2021/10/31 09:02:37;;;;;;;11.68;6.32;;;;;;;-142.75;100.00;76186.47;4988965;28;20561;-67
2021/10/31 09:05:07;;;;;;;15.30;6.78;;;;;;;-142.75;100.00;76164.81;4988057;28;20104;-67
2021/10/31 09:07:33;;;;;;;9.82;6.18;;;;;;;-142.75;100.00;76184.50;4970732;28;20030;-69
2021/10/31 09:09:59;;;;;;;;;;;;;;;-142.75;100.00;76172.69;4977822;28;20099;-68
2021/10/31 09:12:24;;;;;;;9.55;5.72;;;;;;;-142.75;100.00;76174.66;4984090;28;19964;-68
2021/10/31 09:14:51;;;;;;;7.85;5.68;;;;;;;-142.75;100.00;76172.69;4983177;28;20026;-67
2021/10/31 09:17:16;;;;;;;9.25;5.75;;;;;;;-142.75;100.00;76180.56;4983781;28;20034;-68
2021/10/31 09:19:42;;;;;;;8.82;6.00;;;;;;;-142.75;100.00;76188.44;4989091;28;20037;-68
2021/10/31 09:22:07;;;;;;;13.85;5.82;;;;;;;-142.75;100.00;76186.47;4989885;28;20037;-70
2021/10/31 09:24:32;;;;;;;;;;;;;;;-142.75;100.00;76180.56;4992720;28;20100;-70
2021/10/31 09:26:58;;;;;;;9.32;5.90;;;;;;;-142.75;100.00;76176.63;4992786;28;20011;-69
2021/10/31 09:29:24;;;;;;;;;;;;;;;-142.75;100.00;76188.44;4975919;28;20022;-68
2021/10/31 09:31:49;;;;;;;8.15;5.60;;;;;;;-142.75;100.00;76168.75;4990181;28;19925;-70
2021/10/31 09:34:14;;;;;;;7.07;5.60;;;;;;;-142.75;100.00;76180.56;4991300;28;20476;-69
2021/10/31 09:36:40;;;;;;;9.30;6.10;;;;;;;-142.75;100.00;76170.72;4991527;28;20054;-70
2021/10/31 09:39:07;;;;;;;;;;;;;;;-142.75;100.00;76168.75;4991229;28;20022;-68
2021/10/31 09:41:33;;;;;;;7.40;5.00;;;;;;;-142.75;100.00;76156.94;4990710;28;20325;-69
2021/10/31 09:46:38;;;;;;;9.52;5.25;;;;;;;-142.75;100.00;76129.38;4991372;28;20480;-70
2021/10/31 09:49:04;;;;;;;8.73;5.40;;;;;;;-142.75;100.00;76125.44;4990276;28;20034;-69
2021/10/31 09:51:31;;;;;;;7.32;4.97;;;;;;;-142.75;100.00;76097.88;4971716;28;20030;-70
2021/10/31 09:53:59;;;;;;;9.80;5.15;;;;;;;-142.75;100.00;76078.19;4989591;28;20023;-70
2021/10/31 09:56:24;;;;;;;7.55;5.70;;;;;;;-142.75;100.00;76074.25;4989427;28;20037;-70
2021/10/31 09:58:52;;;;;;;6.95;4.80;;;;;;;-142.75;100.00;76050.66;4989916;28;20026;-70
2021/10/31 10:01:36;;;;;;;8.48;4.90;;;;;;;-142.75;100.00;76046.72;4988938;28;20114;-70
2021/10/31 10:04:02;;;;;;;6.90;4.45;;;;;;;-142.75;100.00;76058.53;4971987;28;20056;-69
2021/10/31 10:06:28;;;;;;;6.90;4.75;;;;;;;-142.75;100.00;76048.69;4989382;28;20488;-69
2021/10/31 10:09:03;;;;;;;8.18;5.25;;;;;;;-142.75;100.00;76042.78;4988261;28;20508;-70
2021/10/31 10:11:31;;;;;;;7.35;4.75;;;;;;;-142.75;100.00;76054.59;4983080;28;20065;-70
2021/10/31 10:14:09;;;;;;;5.65;4.00;;;;;;;-142.75;100.00;76034.91;4982377;28;20038;-70
2021/10/31 10:16:35;;;;;;;7.75;3.75;;;;;;;-142.75;100.00;76032.94;4987011;28;20034;-69
2021/10/31 10:19:12;;;;;;;6.32;3.85;;;;;;;-142.75;100.00;76038.84;4990537;28;20032;-70
2021/10/31 10:21:37;;;;;;;5.85;3.20;;;;;;;-142.75;100.00;76048.69;4987246;28;20109;-70
2021/10/31 10:24:09;;;;;;;6.65;3.53;;;;;;;-142.75;100.00;76038.84;4989745;28;20602;-68
2021/10/31 10:26:42;;;;;;;7.82;3.30;;;;;;;-142.75;100.00;76011.28;4990251;28;20033;-70
2021/10/31 10:29:18;;;;;;;5.95;2.90;;;;;;;-142.75;100.00;76023.09;4990269;28;20134;-71
2021/10/31 10:31:46;;;;;;;5.55;2.97;;;;;;;-142.75;100.00;76009.31;4989815;28;20023;-70
2021/10/31 10:34:12;;;;;;;6.85;3.40;;;;;;;-142.75;100.00;75991.59;4989616;28;20117;-72
2021/10/31 10:36:42;;;;;;;5.85;2.83;;;;;;;-142.75;100.00;75991.59;4990309;28;20030;-71
2021/10/31 10:39:11;;;;;;;5.40;2.60;;;;;;;-142.75;100.00;75973.88;4972602;28;21365;-70
2021/10/31 10:41:54;;;;;;;3.50;2.10;;;;;;;-142.75;100.00;75962.09;4988537;28;20026;-69
2021/10/31 10:44:26;;;;;;;7.10;2.70;;;;;;;-142.75;100.00;75964.03;4988447;28;20049;-71
2021/10/31 10:46:55;;;;;;;5.65;2.50;;;;;;;-142.75;100.00;75967.97;4991369;28;20483;-70
2021/10/31 10:49:20;;;;;;;6.80;2.33;;;;;;;-142.75;100.00;75950.28;4991212;28;20057;-69
2021/10/31 10:52:08;;;;;;;7.05;2.38;;;;;;;-142.75;100.00;75946.34;4990959;28;20061;-71
2021/10/31 10:54:35;;;;;;;3.85;2.00;;;;;;;-142.75;100.00;75950.28;4992360;28;20041;-70
2021/10/31 10:57:06;;;;;;;4.60;1.85;;;;;;;-142.75;100.00;75940.44;4961552;28;20035;-71
2021/10/31 10:59:33;;;;;;;6.13;2.00;;;;;;;-142.75;100.00;75938.47;4963405;28;20035;-71
2021/10/31 11:02:17;;;;;;;3.75;1.83;;;;;;;-142.75;100.00;75914.84;4964800;28;20081;-71
2021/10/31 11:04:49;;;;;;;4.85;2.10;;;;;;;-142.75;100.00;75908.94;4973041;28;20023;-69
2021/10/31 11:07:15;;;;;;;6.28;2.33;;;;;;;-142.75;100.00;75912.88;4963101;28;20027;-70
2021/10/31 11:09:47;;;;;;;4.72;1.70;;;;;;;-142.75;100.00;75916.81;4957885;28;20042;-74